sensor_id;sensor_type;location;lat;lon;timestamp;P1;durP1;ratioP1;P2;durP2;ratioP2
79076;SDS011;68477;42.698;23.342;2023-04-03T00:00:07;23.55;;;11.48;;
79076;SDS011;68477;42.698;23.342;2023-04-03T00:02:33;23.20;;;12.18;;
79076;SDS011;68477;42.698;23.342;2023-04-03T00:04:59;23.98;;;12.45;;
79076;SDS011;68477;42.698;23.342;2023-04-03T00:07:24;25.85;;;12.65;;
79076;SDS011;68477;42.698;23.342;2023-04-03T00:09:50;30.55;;;13.38;;
79076;SDS011;68477;42.698;23.342;2023-04-03T00:12:15;26.25;;;13.45;;
79076;SDS011;68477;42.698;23.342;2023-04-03T00:14:41;28.80;;;13.00;;
79076;SDS011;68477;42.698;23.342;2023-04-03T00:17:06;21.77;;;12.30;;
79076;SDS011;68477;42.698;23.342;2023-04-03T00:19:32;18.67;;;11.10;;
79076;SDS011;68477;42.698;23.342;2023-04-03T00:21:57;22.60;;;12.10;;
79076;SDS011;68477;42.698;23.342;2023-04-03T00:24:23;21.42;;;11.73;;
79076;SDS011;68477;42.698;23.342;2023-04-03T00:26:48;22.38;;;11.38;;
79076;SDS011;68477;42.698;23.342;2023-04-03T00:29:14;21.65;;;12.55;;
79076;SDS011;68477;42.698;23.342;2023-04-03T00:31:39;21.70;;;11.23;;
79076;SDS011;68477;42.698;23.342;2023-04-03T00:34:05;21.50;;;11.38;;
79076;SDS011;68477;42.698;23.342;2023-04-03T00:36:31;21.15;;;11.18;;
79076;SDS011;68477;42.698;23.342;2023-04-03T00:38:56;23.45;;;12.40;;
79076;SDS011;68477;42.698;23.342;2023-04-03T00:41:21;20.92;;;11.88;;
79076;SDS011;68477;42.698;23.342;2023-04-03T00:43:47;21.13;;;12.27;;
79076;SDS011;68477;42.698;23.342;2023-04-03T00:46:13;24.85;;;12.80;;
79076;SDS011;68477;42.698;23.342;2023-04-03T00:48:40;25.00;;;12.98;;
79076;SDS011;68477;42.698;23.342;2023-04-03T00:51:27;24.10;;;14.38;;
79076;SDS011;68477;42.698;23.342;2023-04-03T00:53:54;27.90;;;15.30;;
79076;SDS011;68477;42.698;23.342;2023-04-03T00:56:25;24.65;;;14.23;;
79076;SDS011;68477;42.698;23.342;2023-04-03T00:58:57;27.02;;;14.82;;
79076;SDS011;68477;42.698;23.342;2023-04-03T01:01:27;29.80;;;15.35;;
79076;SDS011;68477;42.698;23.342;2023-04-03T01:03:54;28.40;;;14.25;;
79076;SDS011;68477;42.698;23.342;2023-04-03T01:06:21;26.45;;;13.90;;
79076;SDS011;68477;42.698;23.342;2023-04-03T01:08:51;28.27;;;13.82;;
79076;SDS011;68477;42.698;23.342;2023-04-03T01:11:17;22.42;;;12.63;;
79076;SDS011;68477;42.698;23.342;2023-04-03T01:13:43;25.73;;;12.30;;
79076;SDS011;68477;42.698;23.342;2023-04-03T01:16:08;23.60;;;11.52;;
79076;SDS011;68477;42.698;23.342;2023-04-03T01:18:37;19.92;;;11.55;;
79076;SDS011;68477;42.698;23.342;2023-04-03T01:26:29;22.08;;;10.40;;
79076;SDS011;68477;42.698;23.342;2023-04-03T01:28:55;18.33;;;11.15;;
79076;SDS011;68477;42.698;23.342;2023-04-03T01:33:56;19.20;;;9.05;;
79076;SDS011;68477;42.698;23.342;2023-04-03T01:36:22;13.95;;;7.78;;
79076;SDS011;68477;42.698;23.342;2023-04-03T01:38:50;13.25;;;8.23;;
79076;SDS011;68477;42.698;23.342;2023-04-03T01:41:17;17.83;;;9.45;;
79076;SDS011;68477;42.698;23.342;2023-04-03T01:43:43;13.13;;;6.82;;
79076;SDS011;68477;42.698;23.342;2023-04-03T01:46:08;10.55;;;5.57;;
79076;SDS011;68477;42.698;23.342;2023-04-03T01:48:34;9.38;;;5.10;;
79076;SDS011;68477;42.698;23.342;2023-04-03T01:51:00;11.95;;;5.25;;
79076;SDS011;68477;42.698;23.342;2023-04-03T01:53:25;10.40;;;4.65;;
79076;SDS011;68477;42.698;23.342;2023-04-03T01:55:51;9.60;;;4.65;;
79076;SDS011;68477;42.698;23.342;2023-04-03T01:58:16;8.18;;;4.55;;
79076;SDS011;68477;42.698;23.342;2023-04-03T02:00:42;11.05;;;4.65;;
79076;SDS011;68477;42.698;23.342;2023-04-03T02:03:07;9.00;;;5.15;;
79076;SDS011;68477;42.698;23.342;2023-04-03T02:05:33;7.82;;;4.10;;
79076;SDS011;68477;42.698;23.342;2023-04-03T02:07:58;8.40;;;4.68;;
79076;SDS011;68477;42.698;23.342;2023-04-03T02:10:24;6.88;;;3.90;;
79076;SDS011;68477;42.698;23.342;2023-04-03T02:12:49;6.95;;;4.20;;
79076;SDS011;68477;42.698;23.342;2023-04-03T02:15:15;5.00;;;3.13;;
79076;SDS011;68477;42.698;23.342;2023-04-03T02:17:41;6.13;;;3.38;;
79076;SDS011;68477;42.698;23.342;2023-04-03T02:20:06;5.85;;;3.85;;
79076;SDS011;68477;42.698;23.342;2023-04-03T02:22:32;7.22;;;4.05;;
79076;SDS011;68477;42.698;23.342;2023-04-03T02:24:58;7.03;;;3.97;;
79076;SDS011;68477;42.698;23.342;2023-04-03T02:27:23;8.38;;;4.20;;
79076;SDS011;68477;42.698;23.342;2023-04-03T02:29:49;8.68;;;4.63;;
79076;SDS011;68477;42.698;23.342;2023-04-03T02:32:15;11.82;;;3.97;;
79076;SDS011;68477;42.698;23.342;2023-04-03T02:34:40;8.05;;;4.47;;
79076;SDS011;68477;42.698;23.342;2023-04-03T02:37:06;6.22;;;4.30;;
79076;SDS011;68477;42.698;23.342;2023-04-03T02:39:31;6.53;;;3.83;;
79076;SDS011;68477;42.698;23.342;2023-04-03T02:41:57;8.55;;;4.05;;
79076;SDS011;68477;42.698;23.342;2023-04-03T02:44:22;8.80;;;4.57;;
79076;SDS011;68477;42.698;23.342;2023-04-03T02:46:48;6.88;;;4.28;;
79076;SDS011;68477;42.698;23.342;2023-04-03T02:49:14;6.05;;;4.18;;
79076;SDS011;68477;42.698;23.342;2023-04-03T02:51:40;7.55;;;4.00;;
79076;SDS011;68477;42.698;23.342;2023-04-03T02:54:06;10.75;;;4.22;;
79076;SDS011;68477;42.698;23.342;2023-04-03T02:56:31;7.88;;;4.45;;
79076;SDS011;68477;42.698;23.342;2023-04-03T02:58:57;10.18;;;4.55;;
79076;SDS011;68477;42.698;23.342;2023-04-03T03:01:22;6.38;;;4.05;;
79076;SDS011;68477;42.698;23.342;2023-04-03T03:03:48;7.60;;;4.32;;
79076;SDS011;68477;42.698;23.342;2023-04-03T03:06:14;6.10;;;4.30;;
79076;SDS011;68477;42.698;23.342;2023-04-03T03:08:41;7.55;;;4.28;;
79076;SDS011;68477;42.698;23.342;2023-04-03T03:11:07;8.82;;;4.10;;
79076;SDS011;68477;42.698;23.342;2023-04-03T03:13:33;5.85;;;4.07;;
79076;SDS011;68477;42.698;23.342;2023-04-03T03:15:58;12.10;;;4.25;;
79076;SDS011;68477;42.698;23.342;2023-04-03T03:18:25;8.43;;;5.03;;
79076;SDS011;68477;42.698;23.342;2023-04-03T03:20:54;8.90;;;5.15;;
79076;SDS011;68477;42.698;23.342;2023-04-03T03:23:22;9.23;;;5.32;;
79076;SDS011;68477;42.698;23.342;2023-04-03T03:25:55;9.60;;;4.43;;
79076;SDS011;68477;42.698;23.342;2023-04-03T03:28:25;8.07;;;5.00;;
79076;SDS011;68477;42.698;23.342;2023-04-03T03:30:51;7.80;;;5.00;;
79076;SDS011;68477;42.698;23.342;2023-04-03T03:33:17;10.45;;;5.45;;
79076;SDS011;68477;42.698;23.342;2023-04-03T03:35:43;9.48;;;5.03;;
79076;SDS011;68477;42.698;23.342;2023-04-03T03:38:09;10.57;;;5.05;;
79076;SDS011;68477;42.698;23.342;2023-04-03T03:40:35;11.25;;;4.72;;
79076;SDS011;68477;42.698;23.342;2023-04-03T03:43:00;10.95;;;4.97;;
79076;SDS011;68477;42.698;23.342;2023-04-03T03:45:26;11.57;;;6.13;;
79076;SDS011;68477;42.698;23.342;2023-04-03T03:47:51;14.38;;;6.13;;
79076;SDS011;68477;42.698;23.342;2023-04-03T03:50:17;16.63;;;6.88;;
79076;SDS011;68477;42.698;23.342;2023-04-03T03:52:43;14.32;;;6.22;;
79076;SDS011;68477;42.698;23.342;2023-04-03T03:55:09;12.88;;;6.68;;
79076;SDS011;68477;42.698;23.342;2023-04-03T03:57:36;10.07;;;6.50;;
79076;SDS011;68477;42.698;23.342;2023-04-03T04:00:02;11.90;;;7.10;;
79076;SDS011;68477;42.698;23.342;2023-04-03T04:02:28;14.23;;;7.43;;
79076;SDS011;68477;42.698;23.342;2023-04-03T04:04:54;12.20;;;6.20;;
79076;SDS011;68477;42.698;23.342;2023-04-03T04:07:20;20.27;;;7.75;;
79076;SDS011;68477;42.698;23.342;2023-04-03T04:09:45;14.20;;;7.47;;
79076;SDS011;68477;42.698;23.342;2023-04-03T04:12:10;15.93;;;7.85;;
79076;SDS011;68477;42.698;23.342;2023-04-03T04:14:36;15.38;;;7.88;;
79076;SDS011;68477;42.698;23.342;2023-04-03T04:17:01;14.48;;;8.45;;
79076;SDS011;68477;42.698;23.342;2023-04-03T04:19:27;20.67;;;8.40;;
79076;SDS011;68477;42.698;23.342;2023-04-03T04:21:53;14.98;;;8.95;;
79076;SDS011;68477;42.698;23.342;2023-04-03T04:24:18;15.10;;;8.27;;
79076;SDS011;68477;42.698;23.342;2023-04-03T04:26:44;17.10;;;8.38;;
79076;SDS011;68477;42.698;23.342;2023-04-03T04:29:09;16.38;;;7.45;;
79076;SDS011;68477;42.698;23.342;2023-04-03T04:31:35;17.42;;;8.30;;
79076;SDS011;68477;42.698;23.342;2023-04-03T04:34:00;19.20;;;8.07;;
79076;SDS011;68477;42.698;23.342;2023-04-03T04:36:26;20.95;;;8.82;;
79076;SDS011;68477;42.698;23.342;2023-04-03T04:38:51;21.50;;;9.18;;
79076;SDS011;68477;42.698;23.342;2023-04-03T04:41:20;16.45;;;8.85;;
79076;SDS011;68477;42.698;23.342;2023-04-03T04:43:48;20.48;;;9.27;;
79076;SDS011;68477;42.698;23.342;2023-04-03T04:46:13;20.17;;;10.52;;
79076;SDS011;68477;42.698;23.342;2023-04-03T04:48:40;20.50;;;9.88;;
79076;SDS011;68477;42.698;23.342;2023-04-03T04:51:05;29.80;;;11.23;;
79076;SDS011;68477;42.698;23.342;2023-04-03T04:53:31;21.45;;;10.77;;
79076;SDS011;68477;42.698;23.342;2023-04-03T04:55:57;22.73;;;11.20;;
79076;SDS011;68477;42.698;23.342;2023-04-03T04:58:23;18.77;;;11.10;;
79076;SDS011;68477;42.698;23.342;2023-04-03T05:00:49;35.70;;;17.73;;
79076;SDS011;68477;42.698;23.342;2023-04-03T05:03:14;51.53;;;19.23;;
79076;SDS011;68477;42.698;23.342;2023-04-03T05:05:41;28.30;;;12.65;;
79076;SDS011;68477;42.698;23.342;2023-04-03T05:08:07;26.45;;;12.65;;
79076;SDS011;68477;42.698;23.342;2023-04-03T05:10:33;33.13;;;13.38;;
79076;SDS011;68477;42.698;23.342;2023-04-03T05:12:59;23.38;;;11.82;;
79076;SDS011;68477;42.698;23.342;2023-04-03T05:15:24;21.15;;;10.63;;
79076;SDS011;68477;42.698;23.342;2023-04-03T05:17:50;21.33;;;9.68;;
79076;SDS011;68477;42.698;23.342;2023-04-03T05:20:16;22.00;;;9.85;;
79076;SDS011;68477;42.698;23.342;2023-04-03T05:22:41;18.00;;;10.10;;
79076;SDS011;68477;42.698;23.342;2023-04-03T05:25:07;22.35;;;10.55;;
79076;SDS011;68477;42.698;23.342;2023-04-03T05:27:32;21.38;;;10.80;;
79076;SDS011;68477;42.698;23.342;2023-04-03T05:29:58;22.38;;;11.10;;
79076;SDS011;68477;42.698;23.342;2023-04-03T05:32:24;24.83;;;12.48;;
79076;SDS011;68477;42.698;23.342;2023-04-03T05:34:52;21.40;;;11.93;;
79076;SDS011;68477;42.698;23.342;2023-04-03T05:37:18;21.35;;;12.88;;
79076;SDS011;68477;42.698;23.342;2023-04-03T05:39:43;26.00;;;11.98;;
79076;SDS011;68477;42.698;23.342;2023-04-03T05:42:09;24.25;;;12.95;;
79076;SDS011;68477;42.698;23.342;2023-04-03T05:44:36;33.35;;;13.23;;
79076;SDS011;68477;42.698;23.342;2023-04-03T05:47:01;20.67;;;9.88;;
79076;SDS011;68477;42.698;23.342;2023-04-03T05:49:27;19.75;;;9.60;;
79076;SDS011;68477;42.698;23.342;2023-04-03T05:51:52;18.88;;;9.70;;
79076;SDS011;68477;42.698;23.342;2023-04-03T05:54:19;18.58;;;9.70;;
79076;SDS011;68477;42.698;23.342;2023-04-03T05:56:48;16.17;;;9.90;;
79076;SDS011;68477;42.698;23.342;2023-04-03T05:59:14;26.17;;;10.45;;
79076;SDS011;68477;42.698;23.342;2023-04-03T06:01:40;16.02;;;9.30;;
79076;SDS011;68477;42.698;23.342;2023-04-03T06:04:05;19.55;;;10.05;;
79076;SDS011;68477;42.698;23.342;2023-04-03T06:06:52;18.05;;;8.65;;
79076;SDS011;68477;42.698;23.342;2023-04-03T06:09:20;20.48;;;11.10;;
79076;SDS011;68477;42.698;23.342;2023-04-03T06:11:47;30.50;;;15.38;;
79076;SDS011;68477;42.698;23.342;2023-04-03T06:14:13;24.48;;;15.02;;
79076;SDS011;68477;42.698;23.342;2023-04-03T06:16:39;26.23;;;14.73;;
79076;SDS011;68477;42.698;23.342;2023-04-03T06:19:05;30.85;;;17.27;;
79076;SDS011;68477;42.698;23.342;2023-04-03T06:21:31;41.33;;;18.50;;
79076;SDS011;68477;42.698;23.342;2023-04-03T06:23:57;39.67;;;18.65;;
79076;SDS011;68477;42.698;23.342;2023-04-03T06:26:23;37.63;;;16.42;;
79076;SDS011;68477;42.698;23.342;2023-04-03T06:28:48;24.50;;;12.32;;
79076;SDS011;68477;42.698;23.342;2023-04-03T06:31:13;18.65;;;10.80;;
79076;SDS011;68477;42.698;23.342;2023-04-03T06:33:39;29.52;;;11.98;;
79076;SDS011;68477;42.698;23.342;2023-04-03T06:36:05;19.50;;;12.32;;
79076;SDS011;68477;42.698;23.342;2023-04-03T06:38:33;25.83;;;13.02;;
79076;SDS011;68477;42.698;23.342;2023-04-03T06:40:59;22.95;;;12.80;;
79076;SDS011;68477;42.698;23.342;2023-04-03T06:43:25;25.90;;;13.07;;
79076;SDS011;68477;42.698;23.342;2023-04-03T06:45:51;26.15;;;11.60;;
79076;SDS011;68477;42.698;23.342;2023-04-03T06:48:16;24.85;;;13.25;;
79076;SDS011;68477;42.698;23.342;2023-04-03T06:50:42;26.42;;;14.35;;
79076;SDS011;68477;42.698;23.342;2023-04-03T06:53:09;32.58;;;14.48;;
79076;SDS011;68477;42.698;23.342;2023-04-03T06:55:35;32.45;;;15.98;;
79076;SDS011;68477;42.698;23.342;2023-04-03T06:58:01;36.97;;;16.27;;
79076;SDS011;68477;42.698;23.342;2023-04-03T07:00:27;27.00;;;15.32;;
79076;SDS011;68477;42.698;23.342;2023-04-03T07:02:52;26.48;;;15.63;;
79076;SDS011;68477;42.698;23.342;2023-04-03T07:05:19;29.20;;;17.48;;
79076;SDS011;68477;42.698;23.342;2023-04-03T07:07:45;29.73;;;17.98;;
79076;SDS011;68477;42.698;23.342;2023-04-03T07:10:10;28.63;;;14.80;;
79076;SDS011;68477;42.698;23.342;2023-04-03T07:12:36;27.02;;;16.38;;
79076;SDS011;68477;42.698;23.342;2023-04-03T07:15:03;28.85;;;15.18;;
79076;SDS011;68477;42.698;23.342;2023-04-03T07:17:30;25.00;;;14.63;;
79076;SDS011;68477;42.698;23.342;2023-04-03T07:19:56;31.98;;;14.30;;
79076;SDS011;68477;42.698;23.342;2023-04-03T07:22:22;29.38;;;14.13;;
79076;SDS011;68477;42.698;23.342;2023-04-03T07:24:47;29.85;;;13.70;;
79076;SDS011;68477;42.698;23.342;2023-04-03T07:27:13;25.08;;;13.77;;
79076;SDS011;68477;42.698;23.342;2023-04-03T07:29:38;21.88;;;13.25;;
79076;SDS011;68477;42.698;23.342;2023-04-03T07:32:04;24.65;;;13.48;;
79076;SDS011;68477;42.698;23.342;2023-04-03T07:34:30;20.75;;;11.95;;
79076;SDS011;68477;42.698;23.342;2023-04-03T07:36:56;23.42;;;11.57;;
79076;SDS011;68477;42.698;23.342;2023-04-03T07:39:22;25.77;;;12.77;;
79076;SDS011;68477;42.698;23.342;2023-04-03T07:41:48;26.63;;;12.05;;
79076;SDS011;68477;42.698;23.342;2023-04-03T07:44:13;24.23;;;12.45;;
79076;SDS011;68477;42.698;23.342;2023-04-03T07:46:40;18.15;;;8.65;;
79076;SDS011;68477;42.698;23.342;2023-04-03T07:49:07;20.13;;;10.48;;
79076;SDS011;68477;42.698;23.342;2023-04-03T07:51:32;24.27;;;10.93;;
79076;SDS011;68477;42.698;23.342;2023-04-03T07:53:58;18.33;;;10.07;;
79076;SDS011;68477;42.698;23.342;2023-04-03T07:56:23;23.25;;;11.77;;
79076;SDS011;68477;42.698;23.342;2023-04-03T07:58:50;21.70;;;10.88;;
79076;SDS011;68477;42.698;23.342;2023-04-03T08:01:15;26.35;;;10.73;;
79076;SDS011;68477;42.698;23.342;2023-04-03T08:03:41;22.48;;;12.02;;
79076;SDS011;68477;42.698;23.342;2023-04-03T08:06:07;21.02;;;12.38;;
79076;SDS011;68477;42.698;23.342;2023-04-03T08:08:33;22.33;;;11.07;;
79076;SDS011;68477;42.698;23.342;2023-04-03T08:11:00;21.70;;;11.73;;
79076;SDS011;68477;42.698;23.342;2023-04-03T08:13:28;24.10;;;13.60;;
79076;SDS011;68477;42.698;23.342;2023-04-03T08:15:54;27.17;;;13.30;;
79076;SDS011;68477;42.698;23.342;2023-04-03T08:18:22;22.55;;;12.80;;
79076;SDS011;68477;42.698;23.342;2023-04-03T08:20:49;22.63;;;12.05;;
79076;SDS011;68477;42.698;23.342;2023-04-03T08:23:16;25.83;;;11.63;;
79076;SDS011;68477;42.698;23.342;2023-04-03T08:25:42;18.27;;;11.02;;
79076;SDS011;68477;42.698;23.342;2023-04-03T08:28:09;19.08;;;10.82;;
79076;SDS011;68477;42.698;23.342;2023-04-03T08:30:38;31.08;;;12.60;;
79076;SDS011;68477;42.698;23.342;2023-04-03T08:33:04;22.77;;;12.30;;
79076;SDS011;68477;42.698;23.342;2023-04-03T08:35:29;14.88;;;10.93;;
79076;SDS011;68477;42.698;23.342;2023-04-03T08:37:55;21.90;;;11.75;;
79076;SDS011;68477;42.698;23.342;2023-04-03T08:40:21;23.13;;;11.93;;
79076;SDS011;68477;42.698;23.342;2023-04-03T08:45:42;18.15;;;11.32;;
79076;SDS011;68477;42.698;23.342;2023-04-03T08:48:21;19.10;;;11.85;;
79076;SDS011;68477;42.698;23.342;2023-04-03T08:50:53;25.17;;;12.50;;
79076;SDS011;68477;42.698;23.342;2023-04-03T08:53:25;22.33;;;12.90;;
79076;SDS011;68477;42.698;23.342;2023-04-03T08:55:56;21.48;;;12.43;;
79076;SDS011;68477;42.698;23.342;2023-04-03T08:58:26;20.88;;;12.23;;
79076;SDS011;68477;42.698;23.342;2023-04-03T09:03:22;20.27;;;11.13;;
79076;SDS011;68477;42.698;23.342;2023-04-03T09:05:53;23.42;;;11.32;;
79076;SDS011;68477;42.698;23.342;2023-04-03T09:08:33;19.83;;;11.00;;
79076;SDS011;68477;42.698;23.342;2023-04-03T09:14:02;25.00;;;10.07;;
79076;SDS011;68477;42.698;23.342;2023-04-03T09:19:10;14.13;;;8.90;;
79076;SDS011;68477;42.698;23.342;2023-04-03T09:21:38;17.20;;;10.00;;
79076;SDS011;68477;42.698;23.342;2023-04-03T09:24:07;19.27;;;11.15;;
79076;SDS011;68477;42.698;23.342;2023-04-03T09:26:39;20.02;;;9.52;;
79076;SDS011;68477;42.698;23.342;2023-04-03T09:29:14;22.00;;;13.30;;
79076;SDS011;68477;42.698;23.342;2023-04-03T09:31:43;23.67;;;12.50;;
79076;SDS011;68477;42.698;23.342;2023-04-03T09:36:52;19.65;;;11.10;;
79076;SDS011;68477;42.698;23.342;2023-04-03T09:39:20;19.27;;;12.05;;
79076;SDS011;68477;42.698;23.342;2023-04-03T09:44:35;25.55;;;10.93;;
79076;SDS011;68477;42.698;23.342;2023-04-03T09:49:49;23.15;;;12.52;;
79076;SDS011;68477;42.698;23.342;2023-04-03T09:52:25;25.40;;;12.88;;
79076;SDS011;68477;42.698;23.342;2023-04-03T09:54:51;31.63;;;15.60;;
79076;SDS011;68477;42.698;23.342;2023-04-03T09:57:17;29.95;;;13.30;;
79076;SDS011;68477;42.698;23.342;2023-04-03T10:00:05;23.65;;;13.65;;
79076;SDS011;68477;42.698;23.342;2023-04-03T10:02:32;22.85;;;13.20;;
79076;SDS011;68477;42.698;23.342;2023-04-03T10:04:59;24.60;;;13.70;;
79076;SDS011;68477;42.698;23.342;2023-04-03T10:07:34;24.63;;;12.68;;
79076;SDS011;68477;42.698;23.342;2023-04-03T10:12:39;18.83;;;10.73;;
79076;SDS011;68477;42.698;23.342;2023-04-03T10:15:10;21.42;;;11.02;;
79076;SDS011;68477;42.698;23.342;2023-04-03T10:31:44;20.25;;;10.48;;
79076;SDS011;68477;42.698;23.342;2023-04-03T10:37:00;17.50;;;10.27;;
79076;SDS011;68477;42.698;23.342;2023-04-03T10:39:39;16.60;;;8.32;;
79076;SDS011;68477;42.698;23.342;2023-04-03T10:42:34;18.70;;;8.25;;
79076;SDS011;68477;42.698;23.342;2023-04-03T10:50:43;21.77;;;7.72;;
79076;SDS011;68477;42.698;23.342;2023-04-03T10:55:58;18.77;;;8.35;;
79076;SDS011;68477;42.698;23.342;2023-04-03T10:58:32;16.92;;;8.90;;
79076;SDS011;68477;42.698;23.342;2023-04-03T11:01:30;16.30;;;7.05;;
79076;SDS011;68477;42.698;23.342;2023-04-03T11:03:58;13.07;;;7.88;;
79076;SDS011;68477;42.698;23.342;2023-04-03T11:06:34;15.30;;;6.88;;
79076;SDS011;68477;42.698;23.342;2023-04-03T11:09:16;15.93;;;6.88;;
79076;SDS011;68477;42.698;23.342;2023-04-03T11:11:49;14.68;;;5.28;;
79076;SDS011;68477;42.698;23.342;2023-04-03T11:14:34;10.70;;;5.80;;
79076;SDS011;68477;42.698;23.342;2023-04-03T11:17:04;12.73;;;5.07;;
79076;SDS011;68477;42.698;23.342;2023-04-03T11:19:38;6.60;;;4.90;;
79076;SDS011;68477;42.698;23.342;2023-04-03T11:24:37;9.48;;;3.80;;
79076;SDS011;68477;42.698;23.342;2023-04-03T11:27:08;9.88;;;4.00;;
79076;SDS011;68477;42.698;23.342;2023-04-03T11:29:47;5.65;;;3.38;;
79076;SDS011;68477;42.698;23.342;2023-04-03T11:35:07;7.88;;;3.58;;
79076;SDS011;68477;42.698;23.342;2023-04-03T11:37:35;11.98;;;4.93;;
79076;SDS011;68477;42.698;23.342;2023-04-03T11:42:55;8.60;;;3.85;;
79076;SDS011;68477;42.698;23.342;2023-04-03T12:05:57;5.72;;;3.47;;
79076;SDS011;68477;42.698;23.342;2023-04-03T12:19:03;4.97;;;3.42;;
79076;SDS011;68477;42.698;23.342;2023-04-03T12:24:01;7.63;;;4.05;;
79076;SDS011;68477;42.698;23.342;2023-04-03T12:34:55;8.32;;;4.20;;
79076;SDS011;68477;42.698;23.342;2023-04-03T12:46:48;6.88;;;4.88;;
79076;SDS011;68477;42.698;23.342;2023-04-03T12:49:24;14.15;;;5.80;;
79076;SDS011;68477;42.698;23.342;2023-04-03T12:51:51;8.10;;;4.40;;
79076;SDS011;68477;42.698;23.342;2023-04-03T12:56:46;8.07;;;5.22;;
79076;SDS011;68477;42.698;23.342;2023-04-03T12:59:16;10.23;;;5.80;;
79076;SDS011;68477;42.698;23.342;2023-04-03T13:01:56;10.73;;;5.75;;
79076;SDS011;68477;42.698;23.342;2023-04-03T13:04:23;9.63;;;5.95;;
79076;SDS011;68477;42.698;23.342;2023-04-03T13:06:49;11.20;;;7.10;;
79076;SDS011;68477;42.698;23.342;2023-04-03T13:09:20;8.32;;;5.22;;
79076;SDS011;68477;42.698;23.342;2023-04-03T13:11:48;10.32;;;6.72;;
79076;SDS011;68477;42.698;23.342;2023-04-03T13:14:20;15.00;;;7.80;;
79076;SDS011;68477;42.698;23.342;2023-04-03T13:16:57;16.88;;;8.18;;
79076;SDS011;68477;42.698;23.342;2023-04-03T13:19:25;12.48;;;8.05;;
79076;SDS011;68477;42.698;23.342;2023-04-03T13:21:57;12.88;;;7.85;;
79076;SDS011;68477;42.698;23.342;2023-04-03T13:24:26;13.77;;;9.40;;
79076;SDS011;68477;42.698;23.342;2023-04-03T13:26:54;13.18;;;8.27;;
79076;SDS011;68477;42.698;23.342;2023-04-03T13:29:41;15.63;;;8.48;;
79076;SDS011;68477;42.698;23.342;2023-04-03T13:32:06;19.88;;;13.50;;
79076;SDS011;68477;42.698;23.342;2023-04-03T13:34:42;22.08;;;16.23;;
79076;SDS011;68477;42.698;23.342;2023-04-03T13:42:26;17.95;;;8.35;;
79076;SDS011;68477;42.698;23.342;2023-04-03T13:45:08;11.88;;;7.43;;
79076;SDS011;68477;42.698;23.342;2023-04-03T13:47:49;11.90;;;6.97;;
79076;SDS011;68477;42.698;23.342;2023-04-03T13:50:20;10.45;;;6.15;;
79076;SDS011;68477;42.698;23.342;2023-04-03T13:52:54;14.38;;;7.50;;
79076;SDS011;68477;42.698;23.342;2023-04-03T13:55:32;10.88;;;6.88;;
79076;SDS011;68477;42.698;23.342;2023-04-03T14:00:48;12.07;;;8.10;;
79076;SDS011;68477;42.698;23.342;2023-04-03T14:06:42;11.10;;;6.45;;
79076;SDS011;68477;42.698;23.342;2023-04-03T14:09:08;10.80;;;7.60;;
79076;SDS011;68477;42.698;23.342;2023-04-03T14:11:35;13.85;;;8.70;;
79076;SDS011;68477;42.698;23.342;2023-04-03T14:14:02;13.60;;;8.70;;
79076;SDS011;68477;42.698;23.342;2023-04-03T14:16:38;14.20;;;10.10;;
79076;SDS011;68477;42.698;23.342;2023-04-03T14:19:06;13.85;;;8.25;;
79076;SDS011;68477;42.698;23.342;2023-04-03T14:21:32;9.40;;;6.03;;
79076;SDS011;68477;42.698;23.342;2023-04-03T14:23:59;10.27;;;5.32;;
79076;SDS011;68477;42.698;23.342;2023-04-03T14:26:24;8.52;;;5.72;;
79076;SDS011;68477;42.698;23.342;2023-04-03T14:28:52;10.18;;;5.57;;
79076;SDS011;68477;42.698;23.342;2023-04-03T14:31:19;7.32;;;5.25;;
79076;SDS011;68477;42.698;23.342;2023-04-03T14:33:46;8.40;;;4.70;;
79076;SDS011;68477;42.698;23.342;2023-04-03T14:38:49;7.35;;;5.18;;
79076;SDS011;68477;42.698;23.342;2023-04-03T14:41:16;8.13;;;5.47;;
79076;SDS011;68477;42.698;23.342;2023-04-03T14:43:44;9.73;;;6.13;;
79076;SDS011;68477;42.698;23.342;2023-04-03T14:46:12;9.57;;;5.47;;
79076;SDS011;68477;42.698;23.342;2023-04-03T14:48:43;7.65;;;5.85;;
79076;SDS011;68477;42.698;23.342;2023-04-03T14:51:12;8.52;;;5.60;;
79076;SDS011;68477;42.698;23.342;2023-04-03T14:53:40;11.27;;;6.80;;
79076;SDS011;68477;42.698;23.342;2023-04-03T14:56:26;20.48;;;10.38;;
79076;SDS011;68477;42.698;23.342;2023-04-03T14:58:57;18.42;;;8.60;;
79076;SDS011;68477;42.698;23.342;2023-04-03T15:01:25;8.93;;;5.78;;
79076;SDS011;68477;42.698;23.342;2023-04-03T15:03:52;10.40;;;5.47;;
79076;SDS011;68477;42.698;23.342;2023-04-03T15:06:17;7.07;;;4.97;;
79076;SDS011;68477;42.698;23.342;2023-04-03T15:08:44;6.43;;;4.82;;
79076;SDS011;68477;42.698;23.342;2023-04-03T15:11:11;6.70;;;4.63;;
79076;SDS011;68477;42.698;23.342;2023-04-03T15:13:37;9.50;;;4.38;;
79076;SDS011;68477;42.698;23.342;2023-04-03T15:16:04;5.95;;;3.63;;
79076;SDS011;68477;42.698;23.342;2023-04-03T15:18:31;5.28;;;4.47;;
79076;SDS011;68477;42.698;23.342;2023-04-03T15:21:02;5.72;;;4.45;;
79076;SDS011;68477;42.698;23.342;2023-04-03T15:23:28;5.65;;;3.95;;
79076;SDS011;68477;42.698;23.342;2023-04-03T15:25:54;6.38;;;4.38;;
79076;SDS011;68477;42.698;23.342;2023-04-03T15:30:57;9.20;;;4.93;;
79076;SDS011;68477;42.698;23.342;2023-04-03T15:33:23;6.50;;;5.20;;
79076;SDS011;68477;42.698;23.342;2023-04-03T15:35:49;8.20;;;5.30;;
79076;SDS011;68477;42.698;23.342;2023-04-03T15:38:15;8.48;;;4.75;;
79076;SDS011;68477;42.698;23.342;2023-04-03T15:40:41;7.85;;;4.75;;
79076;SDS011;68477;42.698;23.342;2023-04-03T15:43:09;8.98;;;5.40;;
79076;SDS011;68477;42.698;23.342;2023-04-03T15:45:35;8.65;;;5.78;;
79076;SDS011;68477;42.698;23.342;2023-04-03T15:48:02;12.25;;;7.82;;
79076;SDS011;68477;42.698;23.342;2023-04-03T15:50:28;9.85;;;6.10;;
79076;SDS011;68477;42.698;23.342;2023-04-03T15:52:54;9.70;;;6.13;;
79076;SDS011;68477;42.698;23.342;2023-04-03T15:55:26;8.27;;;5.30;;
79076;SDS011;68477;42.698;23.342;2023-04-03T15:57:52;9.15;;;5.50;;
79076;SDS011;68477;42.698;23.342;2023-04-03T16:00:18;10.23;;;5.63;;
79076;SDS011;68477;42.698;23.342;2023-04-03T16:02:45;8.93;;;5.18;;
79076;SDS011;68477;42.698;23.342;2023-04-03T16:05:13;9.35;;;6.35;;
79076;SDS011;68477;42.698;23.342;2023-04-03T16:07:42;12.00;;;6.65;;
79076;SDS011;68477;42.698;23.342;2023-04-03T16:10:08;8.30;;;6.43;;
79076;SDS011;68477;42.698;23.342;2023-04-03T16:12:35;13.48;;;7.32;;
79076;SDS011;68477;42.698;23.342;2023-04-03T16:15:02;15.52;;;8.85;;
79076;SDS011;68477;42.698;23.342;2023-04-03T16:17:28;17.08;;;9.27;;
79076;SDS011;68477;42.698;23.342;2023-04-03T16:19:55;18.23;;;10.07;;
79076;SDS011;68477;42.698;23.342;2023-04-03T16:22:21;21.13;;;12.43;;
79076;SDS011;68477;42.698;23.342;2023-04-03T16:27:15;21.13;;;11.13;;
79076;SDS011;68477;42.698;23.342;2023-04-03T16:29:41;21.30;;;13.02;;
79076;SDS011;68477;42.698;23.342;2023-04-03T16:32:06;24.58;;;12.90;;
79076;SDS011;68477;42.698;23.342;2023-04-03T16:34:33;21.10;;;12.20;;
79076;SDS011;68477;42.698;23.342;2023-04-03T16:37:00;16.73;;;10.27;;